sensor_id;sensor_type;location;lat;lon;timestamp;pressure;altitude;pressure_sealevel;temperature;humidity
31299;BME280;17927;52.350;13.402;2023-02-10T00:00:20;102816.50;;;4.23;45.78
31299;BME280;17927;52.350;13.402;2023-02-10T00:02:45;102819.19;;;4.23;45.81
31299;BME280;17927;52.350;13.402;2023-02-10T00:05:11;102822.69;;;4.25;45.96
31299;BME280;17927;52.350;13.402;2023-02-10T00:07:37;102827.97;;;4.27;45.88
31299;BME280;17927;52.350;13.402;2023-02-10T00:10:03;102820.78;;;4.29;45.78
31299;BME280;17927;52.350;13.402;2023-02-10T00:12:28;102821.63;;;4.30;45.99
31299;BME280;17927;52.350;13.402;2023-02-10T00:14:53;102820.78;;;4.29;46.02
31299;BME280;17927;52.350;13.402;2023-02-10T00:17:18;102823.53;;;4.28;46.11
31299;BME280;17927;52.350;13.402;2023-02-10T00:19:44;102821.69;;;4.28;46.15
31299;BME280;17927;52.350;13.402;2023-02-10T00:22:09;102819.94;;;4.27;46.40
31299;BME280;17927;52.350;13.402;2023-02-10T00:24:34;102825.25;;;4.29;46.28
31299;BME280;17927;52.350;13.402;2023-02-10T00:26:59;102825.22;;;4.30;46.35
31299;BME280;17927;52.350;13.402;2023-02-10T00:29:25;102820.72;;;4.31;46.27
31299;BME280;17927;52.350;13.402;2023-02-10T00:31:51;102825.97;;;4.34;46.35
31299;BME280;17927;52.350;13.402;2023-02-10T00:34:17;102826.72;;;4.37;46.52
31299;BME280;17927;52.350;13.402;2023-02-10T00:36:43;102823.13;;;4.38;46.45
31299;BME280;17927;52.350;13.402;2023-02-10T00:39:15;102827.47;;;4.42;46.45
31299;BME280;17927;52.350;13.402;2023-02-10T00:41:40;102830.97;;;4.45;46.39
31299;BME280;17927;52.350;13.402;2023-02-10T00:44:06;102836.22;;;4.48;46.36
31299;BME280;17927;52.350;13.402;2023-02-10T00:46:32;102846.00;;;4.49;46.09
31299;BME280;17927;52.350;13.402;2023-02-10T00:48:57;102828.09;;;4.51;46.40
31299;BME280;17927;52.350;13.402;2023-02-10T00:51:23;102837.84;;;4.52;46.37
31299;BME280;17927;52.350;13.402;2023-02-10T00:53:48;102845.88;;;4.52;46.15
31299;BME280;17927;52.350;13.402;2023-02-10T00:56:19;102839.66;;;4.51;46.36
31299;BME280;17927;52.350;13.402;2023-02-10T00:58:45;102846.75;;;4.52;46.49
31299;BME280;17927;52.350;13.402;2023-02-10T01:01:11;102834.22;;;4.54;46.34
31299;BME280;17927;52.350;13.402;2023-02-10T01:03:36;102839.56;;;4.54;46.22
31299;BME280;17927;52.350;13.402;2023-02-10T01:06:02;102844.03;;;4.54;46.33
31299;BME280;17927;52.350;13.402;2023-02-10T01:08:27;102837.72;;;4.56;46.25
31299;BME280;17927;52.350;13.402;2023-02-10T01:11:03;102839.47;;;4.57;46.54
31299;BME280;17927;52.350;13.402;2023-02-10T01:13:30;102839.41;;;4.59;46.46
31299;BME280;17927;52.350;13.402;2023-02-10T01:15:56;102839.41;;;4.59;46.27
31299;BME280;17927;52.350;13.402;2023-02-10T01:18:21;102850.94;;;4.61;46.35
31299;BME280;17927;52.350;13.402;2023-02-10T01:20:47;102836.63;;;4.62;46.53
31299;BME280;17927;52.350;13.402;2023-02-10T01:23:12;102834.81;;;4.63;46.40
31299;BME280;17927;52.350;13.402;2023-02-10T01:25:38;102845.50;;;4.63;46.49
31299;BME280;17927;52.350;13.402;2023-02-10T01:28:04;102846.34;;;4.65;46.34
31299;BME280;17927;52.350;13.402;2023-02-10T01:30:29;102847.25;;;4.64;46.43
31299;BME280;17927;52.350;13.402;2023-02-10T01:32:55;102846.31;;;4.66;46.47
31299;BME280;17927;52.350;13.402;2023-02-10T01:35:20;102855.25;;;4.65;46.50
31299;BME280;17927;52.350;13.402;2023-02-10T01:37:46;102858.88;;;4.64;46.46
31299;BME280;17927;52.350;13.402;2023-02-10T01:40:11;102852.63;;;4.64;46.58
31299;BME280;17927;52.350;13.402;2023-02-10T01:42:36;102861.56;;;4.63;46.40
31299;BME280;17927;52.350;13.402;2023-02-10T01:45:13;102856.22;;;4.63;46.48
31299;BME280;17927;52.350;13.402;2023-02-10T01:47:40;102852.78;;;4.59;46.32
31299;BME280;17927;52.350;13.402;2023-02-10T01:50:07;102851.13;;;4.55;46.37
31299;BME280;17927;52.350;13.402;2023-02-10T01:52:32;102839.66;;;4.51;46.37
31299;BME280;17927;52.350;13.402;2023-02-10T01:55:09;102838.00;;;4.47;46.46
31299;BME280;17927;52.350;13.402;2023-02-10T01:57:37;102842.53;;;4.45;46.50
31299;BME280;17927;52.350;13.402;2023-02-10T02:00:05;102839.91;;;4.44;46.66
31299;BME280;17927;52.350;13.402;2023-02-10T02:02:30;102839.09;;;4.41;46.66
31299;BME280;17927;52.350;13.402;2023-02-10T02:05:00;102832.91;;;4.39;46.70
31299;BME280;17927;52.350;13.402;2023-02-10T02:07:28;102832.00;;;4.40;46.84
31299;BME280;17927;52.350;13.402;2023-02-10T02:09:56;102838.22;;;4.41;46.68
31299;BME280;17927;52.350;13.402;2023-02-10T02:12:41;102843.53;;;4.42;46.83
31299;BME280;17927;52.350;13.402;2023-02-10T02:15:40;102843.63;;;4.39;46.77
31299;BME280;17927;52.350;13.402;2023-02-10T02:18:15;102854.41;;;4.36;46.83
31299;BME280;17927;52.350;13.402;2023-02-10T02:24:14;102850.97;;;4.33;46.84
31299;BME280;17927;52.350;13.402;2023-02-10T02:29:49;102851.03;;;4.31;46.84
31299;BME280;17927;52.350;13.402;2023-02-10T02:32:22;102854.66;;;4.30;46.91
31299;BME280;17927;52.350;13.402;2023-02-10T02:34:52;102861.75;;;4.31;46.70
31299;BME280;17927;52.350;13.402;2023-02-10T02:37:31;102858.31;;;4.28;46.84
31299;BME280;17927;52.350;13.402;2023-02-10T02:39:58;102862.75;;;4.27;46.90
31299;BME280;17927;52.350;13.402;2023-02-10T02:42:28;102856.59;;;4.25;47.08
31299;BME280;17927;52.350;13.402;2023-02-10T02:44:56;102853.97;;;4.23;46.99
31299;BME280;17927;52.350;13.402;2023-02-10T02:50:30;102855.91;;;4.18;47.05
31299;BME280;17927;52.350;13.402;2023-02-10T02:53:21;102848.88;;;4.16;47.34
31299;BME280;17927;52.350;13.402;2023-02-10T02:56:03;102857.84;;;4.13;47.36
31299;BME280;17927;52.350;13.402;2023-02-10T03:01:39;102867.84;;;4.08;47.50
31299;BME280;17927;52.350;13.402;2023-02-10T03:04:07;102867.94;;;4.05;47.29
31299;BME280;17927;52.350;13.402;2023-02-10T03:06:33;102864.34;;;4.06;47.55
31299;BME280;17927;52.350;13.402;2023-02-10T03:08:58;102867.06;;;4.04;47.63
31299;BME280;17927;52.350;13.402;2023-02-10T03:11:24;102875.97;;;4.05;47.68
31299;BME280;17927;52.350;13.402;2023-02-10T03:13:49;102880.38;;;4.06;47.78
31299;BME280;17927;52.350;13.402;2023-02-10T03:16:14;102877.78;;;4.04;47.48
31299;BME280;17927;52.350;13.402;2023-02-10T03:18:39;102881.38;;;4.03;47.75
31299;BME280;17927;52.350;13.402;2023-02-10T03:21:05;102883.16;;;4.03;47.78
31299;BME280;17927;52.350;13.402;2023-02-10T03:23:30;102881.41;;;4.02;47.87
31299;BME280;17927;52.350;13.402;2023-02-10T03:25:59;102893.03;;;4.01;47.95
31299;BME280;17927;52.350;13.402;2023-02-10T03:28:25;102887.66;;;4.01;47.89
31299;BME280;17927;52.350;13.402;2023-02-10T03:30:50;102890.34;;;4.01;47.99
31299;BME280;17927;52.350;13.402;2023-02-10T03:33:17;102884.13;;;4.00;47.96
31299;BME280;17927;52.350;13.402;2023-02-10T03:35:44;102895.75;;;3.99;48.13
31299;BME280;17927;52.350;13.402;2023-02-10T03:38:09;102887.72;;;3.99;48.15
31299;BME280;17927;52.350;13.402;2023-02-10T03:40:35;102883.38;;;3.96;48.19
31299;BME280;17927;52.350;13.402;2023-02-10T03:43:01;102884.31;;;3.94;48.23
31299;BME280;17927;52.350;13.402;2023-02-10T03:45:26;102893.31;;;3.91;48.52
31299;BME280;17927;52.350;13.402;2023-02-10T03:47:52;102887.97;;;3.91;48.67
31299;BME280;17927;52.350;13.402;2023-02-10T03:50:17;102884.47;;;3.89;48.66
31299;BME280;17927;52.350;13.402;2023-02-10T03:52:42;102888.88;;;3.90;48.68
31299;BME280;17927;52.350;13.402;2023-02-10T03:55:08;102898.75;;;3.88;48.61
31299;BME280;17927;52.350;13.402;2023-02-10T03:57:33;102897.94;;;3.86;48.71
31299;BME280;17927;52.350;13.402;2023-02-10T03:59:58;102907.75;;;3.86;48.87
31299;BME280;17927;52.350;13.402;2023-02-10T04:02:24;102909.53;;;3.85;49.01
31299;BME280;17927;52.350;13.402;2023-02-10T04:04:49;102917.53;;;3.87;48.91
31299;BME280;17927;52.350;13.402;2023-02-10T04:07:14;102914.88;;;3.85;49.12
31299;BME280;17927;52.350;13.402;2023-02-10T04:09:40;102921.97;;;3.88;48.92
31299;BME280;17927;52.350;13.402;2023-02-10T04:12:05;102915.72;;;3.87;49.03
31299;BME280;17927;52.350;13.402;2023-02-10T04:14:30;102915.72;;;3.87;49.16
31299;BME280;17927;52.350;13.402;2023-02-10T04:16:55;102896.16;;;3.85;49.43
31299;BME280;17927;52.350;13.402;2023-02-10T04:19:21;102902.44;;;3.84;49.33
31299;BME280;17927;52.350;13.402;2023-02-10T04:21:46;102887.38;;;3.81;49.42
31299;BME280;17927;52.350;13.402;2023-02-10T04:24:11;102903.34;;;3.83;49.47
31299;BME280;17927;52.350;13.402;2023-02-10T04:26:36;102892.66;;;3.83;49.71
31299;BME280;17927;52.350;13.402;2023-02-10T04:29:02;102898.06;;;3.81;49.63
31299;BME280;17927;52.350;13.402;2023-02-10T04:31:27;102893.56;;;3.84;49.79
31299;BME280;17927;52.350;13.402;2023-02-10T04:33:52;102893.50;;;3.85;49.68
31299;BME280;17927;52.350;13.402;2023-02-10T04:36:17;102896.16;;;3.85;49.88
31299;BME280;17927;52.350;13.402;2023-02-10T04:38:43;102891.66;;;3.87;50.13
31299;BME280;17927;52.350;13.402;2023-02-10T04:41:08;102882.72;;;3.88;49.93
31299;BME280;17927;52.350;13.402;2023-02-10T04:43:33;102879.19;;;3.88;50.03
31299;BME280;17927;52.350;13.402;2023-02-10T04:45:59;102885.44;;;3.87;50.19
31299;BME280;17927;52.350;13.402;2023-02-10T04:48:25;102878.25;;;3.89;50.19
31299;BME280;17927;52.350;13.402;2023-02-10T04:50:50;102882.66;;;3.90;50.48
31299;BME280;17927;52.350;13.402;2023-02-10T04:53:17;102891.41;;;3.95;50.41
31299;BME280;17927;52.350;13.402;2023-02-10T04:55:42;102898.44;;;3.99;50.40
31299;BME280;17927;52.350;13.402;2023-02-10T04:58:07;102901.84;;;4.04;50.20
31299;BME280;17927;52.350;13.402;2023-02-10T05:00:33;102903.53;;;4.07;50.43
31299;BME280;17927;52.350;13.402;2023-02-10T05:02:58;102905.22;;;4.11;50.37
31299;BME280;17927;52.350;13.402;2023-02-10T05:05:24;102914.88;;;4.15;50.40
31299;BME280;17927;52.350;13.402;2023-02-10T05:07:51;102914.84;;;4.17;50.51
31299;BME280;17927;52.350;13.402;2023-02-10T05:10:16;102904.13;;;4.17;50.24
31299;BME280;17927;52.350;13.402;2023-02-10T05:12:41;102914.75;;;4.20;50.74
31299;BME280;17927;52.350;13.402;2023-02-10T05:15:07;102905.75;;;4.22;50.61
31299;BME280;17927;52.350;13.402;2023-02-10T05:17:33;102902.06;;;4.25;50.68
31299;BME280;17927;52.350;13.402;2023-02-10T05:19:58;102912.75;;;4.26;50.58
31299;BME280;17927;52.350;13.402;2023-02-10T05:22:23;102908.25;;;4.27;50.87
31299;BME280;17927;52.350;13.402;2023-02-10T05:24:55;102913.59;;;4.27;50.81
31299;BME280;17927;52.350;13.402;2023-02-10T05:27:21;102909.09;;;4.29;50.78
31299;BME280;17927;52.350;13.402;2023-02-10T05:29:47;102896.56;;;4.30;50.91
31299;BME280;17927;52.350;13.402;2023-02-10T05:32:12;102914.38;;;4.31;51.01
31299;BME280;17927;52.350;13.402;2023-02-10T05:34:37;102917.03;;;4.32;50.91
31299;BME280;17927;52.350;13.402;2023-02-10T05:37:02;102914.25;;;4.35;51.00
31299;BME280;17927;52.350;13.402;2023-02-10T05:39:28;102907.91;;;4.38;51.22
31299;BME280;17927;52.350;13.402;2023-02-10T05:41:55;102905.03;;;4.44;51.14
31299;BME280;17927;52.350;13.402;2023-02-10T05:44:21;102908.44;;;4.49;51.19
31299;BME280;17927;52.350;13.402;2023-02-10T05:46:47;102918.13;;;4.53;51.39
31299;BME280;17927;52.350;13.402;2023-02-10T05:49:12;102913.69;;;4.52;51.29
31299;BME280;17927;52.350;13.402;2023-02-10T05:51:37;102903.00;;;4.52;51.47
31299;BME280;17927;52.350;13.402;2023-02-10T05:54:03;102907.41;;;4.53;51.54
31299;BME280;17927;52.350;13.402;2023-02-10T05:56:28;102907.41;;;4.53;51.66
31299;BME280;17927;52.350;13.402;2023-02-10T05:58:54;102915.38;;;4.55;51.69
31299;BME280;17927;52.350;13.402;2023-02-10T06:01:20;102910.94;;;4.55;51.76
31299;BME280;17927;52.350;13.402;2023-02-10T06:03:45;102909.16;;;4.54;51.61
31299;BME280;17927;52.350;13.402;2023-02-10T06:06:10;102912.72;;;4.55;51.85
31299;BME280;17927;52.350;13.402;2023-02-10T06:08:35;102918.97;;;4.55;51.85
31299;BME280;17927;52.350;13.402;2023-02-10T06:11:01;102915.34;;;4.56;51.99
31299;BME280;17927;52.350;13.402;2023-02-10T06:13:26;102916.22;;;4.57;51.96
31299;BME280;17927;52.350;13.402;2023-02-10T06:15:51;102926.00;;;4.58;52.14
31299;BME280;17927;52.350;13.402;2023-02-10T06:18:17;102939.31;;;4.60;51.99
31299;BME280;17927;52.350;13.402;2023-02-10T06:20:45;102943.75;;;4.61;51.79
31299;BME280;17927;52.350;13.402;2023-02-10T06:23:10;102934.78;;;4.62;51.92
31299;BME280;17927;52.350;13.402;2023-02-10T06:25:35;102935.63;;;4.64;52.04
31299;BME280;17927;52.350;13.402;2023-02-10T06:28:01;102930.28;;;4.64;52.09
31299;BME280;17927;52.350;13.402;2023-02-10T06:30:26;102937.44;;;4.63;52.10
31299;BME280;17927;52.350;13.402;2023-02-10T06:32:52;102955.19;;;4.66;52.33
31299;BME280;17927;52.350;13.402;2023-02-10T06:35:17;102955.19;;;4.66;52.05
31299;BME280;17927;52.350;13.402;2023-02-10T06:37:42;102949.84;;;4.66;52.16
31299;BME280;17927;52.350;13.402;2023-02-10T06:40:08;102957.81;;;4.67;52.15
31299;BME280;17927;52.350;13.402;2023-02-10T06:42:33;102961.38;;;4.68;52.29
31299;BME280;17927;52.350;13.402;2023-02-10T06:44:58;102956.03;;;4.68;52.29
31299;BME280;17927;52.350;13.402;2023-02-10T06:47:24;102954.28;;;4.67;52.29
31299;BME280;17927;52.350;13.402;2023-02-10T06:49:49;102956.94;;;4.67;52.12
31299;BME280;17927;52.350;13.402;2023-02-10T06:52:14;102955.19;;;4.66;52.15
31299;BME280;17927;52.350;13.402;2023-02-10T06:54:40;102946.31;;;4.65;52.26
31299;BME280;17927;52.350;13.402;2023-02-10T06:57:06;102953.44;;;4.65;52.26
31299;BME280;17927;52.350;13.402;2023-02-10T06:59:32;102964.22;;;4.63;52.49
31299;BME280;17927;52.350;13.402;2023-02-10T07:01:58;102963.31;;;4.63;52.38
31299;BME280;17927;52.350;13.402;2023-02-10T07:04:27;102971.31;;;4.64;52.35
31299;BME280;17927;52.350;13.402;2023-02-10T07:06:53;102972.19;;;4.65;52.66
31299;BME280;17927;52.350;13.402;2023-02-10T07:09:18;102971.31;;;4.64;52.62
31299;BME280;17927;52.350;13.402;2023-02-10T07:11:44;102981.16;;;4.64;52.71
31299;BME280;17927;52.350;13.402;2023-02-10T07:14:09;102980.22;;;4.65;52.65
31299;BME280;17927;52.350;13.402;2023-02-10T07:16:34;102973.09;;;4.65;52.57
31299;BME280;17927;52.350;13.402;2023-02-10T07:19:00;102971.25;;;4.66;52.62
31299;BME280;17927;52.350;13.402;2023-02-10T07:21:25;102973.84;;;4.69;52.89
31299;BME280;17927;52.350;13.402;2023-02-10T07:23:51;102977.38;;;4.69;52.72
31299;BME280;17927;52.350;13.402;2023-02-10T07:26:16;102979.16;;;4.70;52.72
31299;BME280;17927;52.350;13.402;2023-02-10T07:28:43;102985.31;;;4.74;52.94
31299;BME280;17927;52.350;13.402;2023-02-10T07:31:08;102986.16;;;4.75;53.05
31299;BME280;17927;52.350;13.402;2023-02-10T07:33:34;102985.16;;;4.77;53.31
31299;BME280;17927;52.350;13.402;2023-02-10T07:36:00;102988.66;;;4.81;52.96
31299;BME280;17927;52.350;13.402;2023-02-10T07:38:26;102995.63;;;4.85;52.99
31299;BME280;17927;52.350;13.402;2023-02-10T07:40:51;102999.97;;;4.89;52.95
31299;BME280;17927;52.350;13.402;2023-02-10T07:43:16;103008.78;;;4.93;53.05
31299;BME280;17927;52.350;13.402;2023-02-10T07:45:41;102989.81;;;4.99;53.24
31299;BME280;17927;52.350;13.402;2023-02-10T07:48:07;102990.56;;;5.04;53.24
31299;BME280;17927;52.350;13.402;2023-02-10T07:50:32;102993.91;;;5.11;53.24
31299;BME280;17927;52.350;13.402;2023-02-10T07:52:57;102995.50;;;5.16;53.45
31299;BME280;17927;52.350;13.402;2023-02-10T07:55:22;103001.44;;;5.25;53.41
31299;BME280;17927;52.350;13.402;2023-02-10T07:57:48;102994.13;;;5.30;53.46
31299;BME280;17927;52.350;13.402;2023-02-10T08:00:13;103003.72;;;5.37;53.57
31299;BME280;17927;52.350;13.402;2023-02-10T08:02:39;103001.72;;;5.42;53.70
31299;BME280;17927;52.350;13.402;2023-02-10T08:05:05;102998.88;;;5.47;53.17
31299;BME280;17927;52.350;13.402;2023-02-10T08:07:31;102998.78;;;5.50;53.36
31299;BME280;17927;52.350;13.402;2023-02-10T08:09:56;103003.97;;;5.55;53.44
31299;BME280;17927;52.350;13.402;2023-02-10T08:12:21;103008.28;;;5.60;53.35
31299;BME280;17927;52.350;13.402;2023-02-10T08:14:47;103011.63;;;5.66;53.68
31299;BME280;17927;52.350;13.402;2023-02-10T08:17:12;103021.25;;;5.71;53.64
31299;BME280;17927;52.350;13.402;2023-02-10T08:19:37;103025.53;;;5.77;53.76
31299;BME280;17927;52.350;13.402;2023-02-10T08:22:05;103012.91;;;5.81;53.43
31299;BME280;17927;52.350;13.402;2023-02-10T08:24:31;103023.53;;;5.84;53.72
31299;BME280;17927;52.350;13.402;2023-02-10T08:26:56;103026.97;;;5.87;53.55
31299;BME280;17927;52.350;13.402;2023-02-10T08:29:22;103033.00;;;5.92;53.80
31299;BME280;17927;52.350;13.402;2023-02-10T08:31:51;103028.38;;;5.98;53.66
31299;BME280;17927;52.350;13.402;2023-02-10T08:34:19;103029.97;;;6.03;53.90
31299;BME280;17927;52.350;13.402;2023-02-10T08:36:45;103038.72;;;6.08;54.14
31299;BME280;17927;52.350;13.402;2023-02-10T08:39:11;103040.22;;;6.16;54.07
31299;BME280;17927;52.350;13.402;2023-02-10T08:41:37;103042.69;;;6.22;54.32
31299;BME280;17927;52.350;13.402;2023-02-10T08:44:03;103039.91;;;6.25;54.08
31299;BME280;17927;52.350;13.402;2023-02-10T08:46:28;103046.91;;;6.29;53.92
31299;BME280;17927;52.350;13.402;2023-02-10T08:48:53;103047.69;;;6.31;54.14
31299;BME280;17927;52.350;13.402;2023-02-10T08:51:18;103041.28;;;6.35;54.34
31299;BME280;17927;52.350;13.402;2023-02-10T08:53:44;103042.03;;;6.39;53.94
31299;BME280;17927;52.350;13.402;2023-02-10T08:56:15;103043.69;;;6.43;54.10
31299;BME280;17927;52.350;13.402;2023-02-10T08:58:41;103048.94;;;6.46;53.97
31299;BME280;17927;52.350;13.402;2023-02-10T09:01:11;103038.06;;;6.49;53.68
31299;BME280;17927;52.350;13.402;2023-02-10T09:03:38;103043.38;;;6.51;54.06
31299;BME280;17927;52.350;13.402;2023-02-10T09:06:04;103039.63;;;6.55;53.90
31299;BME280;17927;52.350;13.402;2023-02-10T09:08:29;103045.84;;;6.57;53.79
31299;BME280;17927;52.350;13.402;2023-02-10T09:10:55;103047.47;;;6.61;54.06
31299;BME280;17927;52.350;13.402;2023-02-10T09:13:20;103039.22;;;6.66;53.98
31299;BME280;17927;52.350;13.402;2023-02-10T09:15:46;103042.47;;;6.74;54.40
31299;BME280;17927;52.350;13.402;2023-02-10T09:18:11;103050.09;;;6.85;54.59
31299;BME280;17927;52.350;13.402;2023-02-10T09:20:37;103042.47;;;6.96;54.65
31299;BME280;17927;52.350;13.402;2023-02-10T09:23:02;103048.22;;;7.09;54.41
31299;BME280;17927;52.350;13.402;2023-02-10T09:25:28;103055.84;;;7.20;54.51
31299;BME280;17927;52.350;13.402;2023-02-10T09:27:53;103049.03;;;7.32;54.36
31299;BME280;17927;52.350;13.402;2023-02-10T09:30:21;103057.53;;;7.43;54.25
31299;BME280;17927;52.350;13.402;2023-02-10T09:32:47;103050.72;;;7.55;54.28
31299;BME280;17927;52.350;13.402;2023-02-10T09:35:13;103051.22;;;7.65;53.91
31299;BME280;17927;52.350;13.402;2023-02-10T09:37:38;103054.44;;;7.73;54.10
31299;BME280;17927;52.350;13.402;2023-02-10T09:40:03;103048.66;;;7.83;53.88
31299;BME280;17927;52.350;13.402;2023-02-10T09:42:47;103067.00;;;7.93;53.93
31299;BME280;17927;52.350;13.402;2023-02-10T09:45:22;103060.25;;;8.04;53.91
31299;BME280;17927;52.350;13.402;2023-02-10T09:47:51;103063.41;;;8.14;53.76
31299;BME280;17927;52.350;13.402;2023-02-10T09:50:40;103058.56;;;8.22;53.53
31299;BME280;17927;52.350;13.402;2023-02-10T09:53:16;103064.81;;;8.22;53.45
31299;BME280;17927;52.350;13.402;2023-02-10T09:55:50;103063.72;;;8.27;53.32
31299;BME280;17927;52.350;13.402;2023-02-10T09:58:32;103069.81;;;8.30;53.25
31299;BME280;17927;52.350;13.402;2023-02-10T10:01:05;103070.72;;;8.31;53.05
31299;BME280;17927;52.350;13.402;2023-02-10T10:04:26;103065.34;;;8.31;52.90
31299;BME280;17927;52.350;13.402;2023-02-10T10:06:47;103067.09;;;8.32;52.79
31299;BME280;17927;52.350;13.402;2023-02-10T10:09:21;103068.97;;;8.30;52.94
31299;BME280;17927;52.350;13.402;2023-02-10T10:11:52;103078.00;;;8.29;53.06
31299;BME280;17927;52.350;13.402;2023-02-10T10:14:21;103078.72;;;8.32;52.91
31299;BME280;17927;52.350;13.402;2023-02-10T10:17:19;103080.34;;;8.36;52.78
31299;BME280;17927;52.350;13.402;2023-02-10T10:19:56;103086.44;;;8.40;52.81
31299;BME280;17927;52.350;13.402;2023-02-10T10:25:47;103077.94;;;8.49;52.78
31299;BME280;17927;52.350;13.402;2023-02-10T10:28:27;103090.19;;;8.57;53.04
31299;BME280;17927;52.350;13.402;2023-02-10T10:31:06;103087.22;;;8.63;52.90
31299;BME280;17927;52.350;13.402;2023-02-10T10:33:39;103077.03;;;8.70;52.93
31299;BME280;17927;52.350;13.402;2023-02-10T10:36:31;103092.97;;;8.74;52.70
31299;BME280;17927;52.350;13.402;2023-02-10T10:39:01;103093.78;;;8.76;52.43
31299;BME280;17927;52.350;13.402;2023-02-10T10:41:31;103091.78;;;8.80;52.59
31299;BME280;17927;52.350;13.402;2023-02-10T10:43:58;103093.44;;;8.82;52.27
31299;BME280;17927;52.350;13.402;2023-02-10T10:46:28;103100.44;;;8.87;52.45
31299;BME280;17927;52.350;13.402;2023-02-10T10:48:56;103094.84;;;8.91;52.41
31299;BME280;17927;52.350;13.402;2023-02-10T10:51:22;103099.13;;;8.95;52.42
31299;BME280;17927;52.350;13.402;2023-02-10T10:53:54;103088.19;;;8.98;52.30
31299;BME280;17927;52.350;13.402;2023-02-10T10:56:26;103096.91;;;9.04;52.06
31299;BME280;17927;52.350;13.402;2023-02-10T10:58:55;103091.31;;;9.08;52.02
31299;BME280;17927;52.350;13.402;2023-02-10T11:01:34;103083.78;;;9.15;51.94
31299;BME280;17927;52.350;13.402;2023-02-10T11:04:25;103085.38;;;9.19;52.06
31299;BME280;17927;52.350;13.402;2023-02-10T11:06:52;103087.84;;;9.24;52.18
31299;BME280;17927;52.350;13.402;2023-02-10T11:09:26;103076.84;;;9.28;51.84
31299;BME280;17927;52.350;13.402;2023-02-10T11:11:54;103069.44;;;9.32;52.11
31299;BME280;17927;52.350;13.402;2023-02-10T11:14:27;103076.50;;;9.35;51.92
31299;BME280;17927;52.350;13.402;2023-02-10T11:17:01;103071.09;;;9.35;51.50
31299;BME280;17927;52.350;13.402;2023-02-10T11:19:30;103058.50;;;9.35;51.59
31299;BME280;17927;52.350;13.402;2023-02-10T11:21:55;103043.91;;;9.39;52.02
31299;BME280;17927;52.350;13.402;2023-02-10T11:24:26;103044.63;;;9.43;51.73
31299;BME280;17927;52.350;13.402;2023-02-10T11:27:05;103045.47;;;9.43;51.73
31299;BME280;17927;52.350;13.402;2023-02-10T11:29:34;103040.09;;;9.43;51.47
31299;BME280;17927;52.350;13.402;2023-02-10T11:32:00;103043.66;;;9.44;51.90
31299;BME280;17927;52.350;13.402;2023-02-10T11:34:28;103041.63;;;9.49;52.02
31299;BME280;17927;52.350;13.402;2023-02-10T11:36:57;103035.09;;;9.53;51.94
31299;BME280;17927;52.350;13.402;2023-02-10T11:39:30;103040.19;;;9.59;51.94
31299;BME280;17927;52.350;13.402;2023-02-10T11:41:56;103044.38;;;9.65;52.25
31299;BME280;17927;52.350;13.402;2023-02-10T11:44:26;103035.88;;;9.73;52.07
31299;BME280;17927;52.350;13.402;2023-02-10T11:47:01;103045.47;;;9.79;51.74
31299;BME280;17927;52.350;13.402;2023-02-10T11:49:28;103038.06;;;9.82;51.91
31299;BME280;17927;52.350;13.402;2023-02-10T11:51:58;103041.31;;;9.89;52.08
31299;BME280;17927;52.350;13.402;2023-02-10T11:54:24;103034.72;;;9.95;51.85
31299;BME280;17927;52.350;13.402;2023-02-10T11:57:06;103029.88;;;10.01;51.57
31299;BME280;17927;52.350;13.402;2023-02-10T12:00:23;103032.31;;;10.06;51.58
31299;BME280;17927;52.350;13.402;2023-02-10T12:06:17;103028.50;;;10.26;51.59
31299;BME280;17927;52.350;13.402;2023-02-10T12:11:26;103026.44;;;10.47;51.22
31299;BME280;17927;52.350;13.402;2023-02-10T12:22:51;103025.13;;;10.71;50.33
31299;BME280;17927;52.350;13.402;2023-02-10T12:25:26;103023.91;;;10.76;49.94
31299;BME280;17927;52.350;13.402;2023-02-10T12:28:06;103022.72;;;10.82;50.24
31299;BME280;17927;52.350;13.402;2023-02-10T12:34:13;103011.50;;;10.88;49.73
31299;BME280;17927;52.350;13.402;2023-02-10T12:39:22;103010.38;;;10.92;49.46
31299;BME280;17927;52.350;13.402;2023-02-10T12:44:53;103023.63;;;10.97;49.33
31299;BME280;17927;52.350;13.402;2023-02-10T12:47:38;103015.41;;;10.99;49.45
31299;BME280;17927;52.350;13.402;2023-02-10T12:53:11;103013.50;;;11.01;49.20
31299;BME280;17927;52.350;13.402;2023-02-10T12:55:52;103002.50;;;11.04;48.91
31299;BME280;17927;52.350;13.402;2023-02-10T12:58:25;103008.59;;;11.07;49.21
31299;BME280;17927;52.350;13.402;2023-02-10T13:01:15;102999.44;;;11.10;49.11
31299;BME280;17927;52.350;13.402;2023-02-10T13:03:45;103011.22;;;11.09;49.05
31299;BME280;17927;52.350;13.402;2023-02-10T13:06:29;103008.59;;;11.07;48.72
31299;BME280;17927;52.350;13.402;2023-02-10T13:09:37;103008.88;;;11.03;48.72
31299;BME280;17927;52.350;13.402;2023-02-10T13:12:47;103008.19;;;10.99;48.48
31299;BME280;17927;52.350;13.402;2023-02-10T13:15:23;103001.19;;;10.95;48.84
31299;BME280;17927;52.350;13.402;2023-02-10T13:17:50;102992.22;;;10.94;48.91
31299;BME280;17927;52.350;13.402;2023-02-10T13:20:36;102990.38;;;10.95;48.51
31299;BME280;17927;52.350;13.402;2023-02-10T13:23:14;102984.00;;;10.96;48.89
31299;BME280;17927;52.350;13.402;2023-02-10T13:25:54;102985.75;;;10.97;48.93
31299;BME280;17927;52.350;13.402;2023-02-10T13:28:35;102994.50;;;10.86;49.20
31299;BME280;17927;52.350;13.402;2023-02-10T13:31:23;102981.59;;;10.91;48.99
31299;BME280;17927;52.350;13.402;2023-02-10T13:34:03;102985.94;;;10.94;48.67
31299;BME280;17927;52.350;13.402;2023-02-10T13:36:32;102992.13;;;10.96;48.75
31299;BME280;17927;52.350;13.402;2023-02-10T13:39:12;102982.00;;;11.00;48.74
31299;BME280;17927;52.350;13.402;2023-02-10T13:41:41;102994.47;;;11.02;49.04